sensor_id;sensor_type;location;lat;lon;timestamp;P1;durP1;ratioP1;P2;durP2;ratioP2
18383;SDS011;9318;48.644;9.456;2023-06-04T00:02:23;0.90;;;0.90;;
18383;SDS011;9318;48.644;9.456;2023-06-04T00:04:51;0.90;;;0.90;;
18383;SDS011;9318;48.644;9.456;2023-06-04T00:07:18;0.80;;;0.80;;
18383;SDS011;9318;48.644;9.456;2023-06-04T00:09:45;0.80;;;0.80;;
18383;SDS011;9318;48.644;9.456;2023-06-04T00:12:12;0.90;;;0.90;;
18383;SDS011;9318;48.644;9.456;2023-06-04T00:14:39;0.80;;;0.80;;
18383;SDS011;9318;48.644;9.456;2023-06-04T00:17:07;0.80;;;0.80;;
18383;SDS011;9318;48.644;9.456;2023-06-04T00:19:34;0.93;;;0.93;;
18383;SDS011;9318;48.644;9.456;2023-06-04T00:22:03;0.80;;;0.80;;
18383;SDS011;9318;48.644;9.456;2023-06-04T00:24:31;0.80;;;0.80;;
18383;SDS011;9318;48.644;9.456;2023-06-04T00:26:57;0.80;;;0.80;;
18383;SDS011;9318;48.644;9.456;2023-06-04T00:29:24;0.90;;;0.90;;
18383;SDS011;9318;48.644;9.456;2023-06-04T00:31:51;0.80;;;0.80;;
18383;SDS011;9318;48.644;9.456;2023-06-04T00:34:18;0.80;;;0.80;;
18383;SDS011;9318;48.644;9.456;2023-06-04T00:36:45;0.83;;;0.83;;
18383;SDS011;9318;48.644;9.456;2023-06-04T00:39:13;0.80;;;0.80;;
18383;SDS011;9318;48.644;9.456;2023-06-04T00:41:39;0.80;;;0.80;;
18383;SDS011;9318;48.644;9.456;2023-06-04T00:44:06;0.70;;;0.70;;
18383;SDS011;9318;48.644;9.456;2023-06-04T00:46:33;0.80;;;0.80;;
18383;SDS011;9318;48.644;9.456;2023-06-04T00:49:01;0.77;;;0.77;;
18383;SDS011;9318;48.644;9.456;2023-06-04T00:51:29;0.80;;;0.80;;
18383;SDS011;9318;48.644;9.456;2023-06-04T00:53:57;0.90;;;0.90;;
18383;SDS011;9318;48.644;9.456;2023-06-04T00:56:28;0.80;;;0.80;;
18383;SDS011;9318;48.644;9.456;2023-06-04T00:58:55;0.70;;;0.70;;
18383;SDS011;9318;48.644;9.456;2023-06-04T01:01:23;0.90;;;0.90;;
18383;SDS011;9318;48.644;9.456;2023-06-04T01:03:55;1.00;;;1.00;;
18383;SDS011;9318;48.644;9.456;2023-06-04T01:06:25;0.90;;;0.90;;
18383;SDS011;9318;48.644;9.456;2023-06-04T01:08:57;0.90;;;0.90;;
18383;SDS011;9318;48.644;9.456;2023-06-04T01:11:33;0.80;;;0.80;;
18383;SDS011;9318;48.644;9.456;2023-06-04T01:14:01;1.00;;;1.00;;
18383;SDS011;9318;48.644;9.456;2023-06-04T01:16:30;0.80;;;0.80;;
18383;SDS011;9318;48.644;9.456;2023-06-04T01:19:02;1.00;;;1.00;;
18383;SDS011;9318;48.644;9.456;2023-06-04T01:21:33;0.90;;;0.90;;
18383;SDS011;9318;48.644;9.456;2023-06-04T01:24:04;0.80;;;0.80;;
18383;SDS011;9318;48.644;9.456;2023-06-04T01:26:32;0.90;;;0.90;;
18383;SDS011;9318;48.644;9.456;2023-06-04T01:29:00;0.90;;;0.90;;
18383;SDS011;9318;48.644;9.456;2023-06-04T01:31:27;0.90;;;0.90;;
18383;SDS011;9318;48.644;9.456;2023-06-04T01:33:57;1.00;;;1.00;;
18383;SDS011;9318;48.644;9.456;2023-06-04T01:36:24;1.00;;;1.00;;
18383;SDS011;9318;48.644;9.456;2023-06-04T01:38:51;0.93;;;0.93;;
18383;SDS011;9318;48.644;9.456;2023-06-04T01:41:18;1.00;;;1.00;;
18383;SDS011;9318;48.644;9.456;2023-06-04T01:43:46;0.90;;;0.90;;
18383;SDS011;9318;48.644;9.456;2023-06-04T01:46:13;0.90;;;0.90;;
18383;SDS011;9318;48.644;9.456;2023-06-04T01:48:40;0.93;;;0.93;;
18383;SDS011;9318;48.644;9.456;2023-06-04T01:51:07;1.00;;;1.00;;
18383;SDS011;9318;48.644;9.456;2023-06-04T01:53:34;1.00;;;1.00;;
18383;SDS011;9318;48.644;9.456;2023-06-04T01:56:01;1.00;;;1.00;;
18383;SDS011;9318;48.644;9.456;2023-06-04T01:58:27;1.00;;;1.00;;
18383;SDS011;9318;48.644;9.456;2023-06-04T02:00:58;0.93;;;0.93;;
18383;SDS011;9318;48.644;9.456;2023-06-04T02:03:28;0.90;;;0.90;;
18383;SDS011;9318;48.644;9.456;2023-06-04T02:06:02;1.00;;;1.00;;
18383;SDS011;9318;48.644;9.456;2023-06-04T02:08:29;1.00;;;1.00;;
18383;SDS011;9318;48.644;9.456;2023-06-04T02:10:56;1.00;;;1.00;;
18383;SDS011;9318;48.644;9.456;2023-06-04T02:13:22;0.90;;;0.90;;
18383;SDS011;9318;48.644;9.456;2023-06-04T02:15:49;1.00;;;1.00;;
18383;SDS011;9318;48.644;9.456;2023-06-04T02:18:18;1.00;;;1.00;;
18383;SDS011;9318;48.644;9.456;2023-06-04T02:20:47;0.97;;;0.97;;
18383;SDS011;9318;48.644;9.456;2023-06-04T02:23:15;0.93;;;0.93;;
18383;SDS011;9318;48.644;9.456;2023-06-04T02:25:43;0.90;;;0.90;;
18383;SDS011;9318;48.644;9.456;2023-06-04T02:28:10;1.00;;;1.00;;
18383;SDS011;9318;48.644;9.456;2023-06-04T02:30:37;1.10;;;1.10;;
18383;SDS011;9318;48.644;9.456;2023-06-04T02:33:04;1.00;;;1.00;;
18383;SDS011;9318;48.644;9.456;2023-06-04T02:35:32;1.07;;;1.07;;
18383;SDS011;9318;48.644;9.456;2023-06-04T02:37:59;0.90;;;0.90;;
18383;SDS011;9318;48.644;9.456;2023-06-04T02:40:26;0.80;;;0.80;;
18383;SDS011;9318;48.644;9.456;2023-06-04T02:42:53;1.00;;;1.00;;
18383;SDS011;9318;48.644;9.456;2023-06-04T02:45:20;1.00;;;1.00;;
18383;SDS011;9318;48.644;9.456;2023-06-04T02:47:47;1.00;;;1.00;;
18383;SDS011;9318;48.644;9.456;2023-06-04T02:50:14;1.00;;;1.00;;
18383;SDS011;9318;48.644;9.456;2023-06-04T02:52:43;1.00;;;1.00;;
18383;SDS011;9318;48.644;9.456;2023-06-04T02:55:10;0.90;;;0.90;;
18383;SDS011;9318;48.644;9.456;2023-06-04T02:57:38;1.03;;;1.03;;
18383;SDS011;9318;48.644;9.456;2023-06-04T03:00:07;1.00;;;1.00;;
18383;SDS011;9318;48.644;9.456;2023-06-04T03:02:37;0.90;;;0.90;;
18383;SDS011;9318;48.644;9.456;2023-06-04T03:05:05;1.00;;;1.00;;
18383;SDS011;9318;48.644;9.456;2023-06-04T03:07:35;0.90;;;0.90;;
18383;SDS011;9318;48.644;9.456;2023-06-04T03:10:04;1.10;;;1.10;;
18383;SDS011;9318;48.644;9.456;2023-06-04T03:12:34;1.17;;;1.17;;
18383;SDS011;9318;48.644;9.456;2023-06-04T03:15:01;1.00;;;1.00;;
18383;SDS011;9318;48.644;9.456;2023-06-04T03:17:29;1.10;;;1.10;;
18383;SDS011;9318;48.644;9.456;2023-06-04T03:19:57;1.00;;;1.00;;
18383;SDS011;9318;48.644;9.456;2023-06-04T03:22:24;1.00;;;1.00;;
18383;SDS011;9318;48.644;9.456;2023-06-04T03:24:51;1.10;;;1.10;;
18383;SDS011;9318;48.644;9.456;2023-06-04T03:27:19;1.10;;;1.10;;
18383;SDS011;9318;48.644;9.456;2023-06-04T03:29:47;1.10;;;1.10;;
18383;SDS011;9318;48.644;9.456;2023-06-04T03:32:14;1.20;;;1.20;;
18383;SDS011;9318;48.644;9.456;2023-06-04T03:34:42;1.00;;;1.00;;
18383;SDS011;9318;48.644;9.456;2023-06-04T03:37:08;1.20;;;1.20;;
18383;SDS011;9318;48.644;9.456;2023-06-04T03:39:35;1.00;;;1.00;;
18383;SDS011;9318;48.644;9.456;2023-06-04T03:42:02;1.00;;;1.00;;
18383;SDS011;9318;48.644;9.456;2023-06-04T03:44:31;1.00;;;1.00;;
18383;SDS011;9318;48.644;9.456;2023-06-04T03:46:57;1.00;;;1.00;;
18383;SDS011;9318;48.644;9.456;2023-06-04T03:49:24;1.20;;;1.20;;
18383;SDS011;9318;48.644;9.456;2023-06-04T03:51:51;1.10;;;1.10;;
18383;SDS011;9318;48.644;9.456;2023-06-04T03:54:18;1.10;;;1.10;;
18383;SDS011;9318;48.644;9.456;2023-06-04T03:56:45;1.10;;;1.10;;
18383;SDS011;9318;48.644;9.456;2023-06-04T03:59:12;1.13;;;1.13;;
18383;SDS011;9318;48.644;9.456;2023-06-04T04:01:41;0.90;;;0.90;;
18383;SDS011;9318;48.644;9.456;2023-06-04T04:04:08;1.20;;;1.20;;
18383;SDS011;9318;48.644;9.456;2023-06-04T04:06:35;1.00;;;1.00;;
18383;SDS011;9318;48.644;9.456;2023-06-04T04:09:02;1.10;;;1.10;;
18383;SDS011;9318;48.644;9.456;2023-06-04T04:11:29;0.97;;;0.97;;
18383;SDS011;9318;48.644;9.456;2023-06-04T04:13:56;1.20;;;1.20;;
18383;SDS011;9318;48.644;9.456;2023-06-04T04:16:23;1.00;;;1.00;;
18383;SDS011;9318;48.644;9.456;2023-06-04T04:18:51;1.00;;;1.00;;
18383;SDS011;9318;48.644;9.456;2023-06-04T04:21:18;1.00;;;1.00;;
18383;SDS011;9318;48.644;9.456;2023-06-04T04:23:46;1.00;;;1.00;;
18383;SDS011;9318;48.644;9.456;2023-06-04T04:26:12;1.00;;;1.00;;
18383;SDS011;9318;48.644;9.456;2023-06-04T04:28:41;1.03;;;1.03;;
18383;SDS011;9318;48.644;9.456;2023-06-04T04:31:08;1.10;;;1.10;;
18383;SDS011;9318;48.644;9.456;2023-06-04T04:33:35;1.00;;;1.00;;
18383;SDS011;9318;48.644;9.456;2023-06-04T04:36:06;1.00;;;1.00;;
18383;SDS011;9318;48.644;9.456;2023-06-04T04:38:37;1.00;;;1.00;;
18383;SDS011;9318;48.644;9.456;2023-06-04T04:41:05;1.00;;;1.00;;
18383;SDS011;9318;48.644;9.456;2023-06-04T04:43:32;0.90;;;0.90;;
18383;SDS011;9318;48.644;9.456;2023-06-04T04:46:00;1.00;;;1.00;;
18383;SDS011;9318;48.644;9.456;2023-06-04T04:48:27;0.90;;;0.90;;
18383;SDS011;9318;48.644;9.456;2023-06-04T04:50:54;0.90;;;0.90;;
18383;SDS011;9318;48.644;9.456;2023-06-04T04:53:22;0.90;;;0.90;;
18383;SDS011;9318;48.644;9.456;2023-06-04T04:55:48;0.97;;;0.97;;
18383;SDS011;9318;48.644;9.456;2023-06-04T04:58:17;1.00;;;1.00;;
18383;SDS011;9318;48.644;9.456;2023-06-04T05:00:43;0.90;;;0.90;;
18383;SDS011;9318;48.644;9.456;2023-06-04T05:03:10;0.97;;;0.97;;
18383;SDS011;9318;48.644;9.456;2023-06-04T05:05:37;0.90;;;0.90;;
18383;SDS011;9318;48.644;9.456;2023-06-04T05:08:04;0.80;;;0.80;;
18383;SDS011;9318;48.644;9.456;2023-06-04T05:10:32;0.90;;;0.90;;
18383;SDS011;9318;48.644;9.456;2023-06-04T05:13:01;0.80;;;0.80;;
18383;SDS011;9318;48.644;9.456;2023-06-04T05:15:29;0.83;;;0.83;;
18383;SDS011;9318;48.644;9.456;2023-06-04T05:17:56;0.80;;;0.80;;
18383;SDS011;9318;48.644;9.456;2023-06-04T05:20:25;0.80;;;0.80;;
18383;SDS011;9318;48.644;9.456;2023-06-04T05:22:52;0.90;;;0.90;;
18383;SDS011;9318;48.644;9.456;2023-06-04T05:25:20;0.90;;;0.90;;
18383;SDS011;9318;48.644;9.456;2023-06-04T05:27:48;0.90;;;0.90;;
18383;SDS011;9318;48.644;9.456;2023-06-04T05:30:15;0.80;;;0.80;;
18383;SDS011;9318;48.644;9.456;2023-06-04T05:32:42;0.90;;;0.90;;
18383;SDS011;9318;48.644;9.456;2023-06-04T05:35:09;0.90;;;0.90;;
18383;SDS011;9318;48.644;9.456;2023-06-04T05:37:37;0.90;;;0.90;;
18383;SDS011;9318;48.644;9.456;2023-06-04T05:40:05;0.90;;;0.90;;
18383;SDS011;9318;48.644;9.456;2023-06-04T05:42:34;1.00;;;1.00;;
18383;SDS011;9318;48.644;9.456;2023-06-04T05:45:02;0.90;;;0.90;;
18383;SDS011;9318;48.644;9.456;2023-06-04T05:47:29;0.80;;;0.80;;
18383;SDS011;9318;48.644;9.456;2023-06-04T05:49:56;0.83;;;0.83;;
18383;SDS011;9318;48.644;9.456;2023-06-04T05:52:23;0.90;;;0.90;;
18383;SDS011;9318;48.644;9.456;2023-06-04T05:54:50;0.90;;;0.90;;
18383;SDS011;9318;48.644;9.456;2023-06-04T05:57:17;0.80;;;0.80;;
18383;SDS011;9318;48.644;9.456;2023-06-04T05:59:44;0.60;;;0.60;;
18383;SDS011;9318;48.644;9.456;2023-06-04T06:02:12;0.70;;;0.70;;
18383;SDS011;9318;48.644;9.456;2023-06-04T06:04:39;0.77;;;0.77;;
18383;SDS011;9318;48.644;9.456;2023-06-04T06:07:06;0.55;;;0.55;;
18383;SDS011;9318;48.644;9.456;2023-06-04T06:09:33;0.65;;;0.65;;
18383;SDS011;9318;48.644;9.456;2023-06-04T06:12:00;0.60;;;0.60;;
18383;SDS011;9318;48.644;9.456;2023-06-04T06:14:27;0.70;;;0.70;;
18383;SDS011;9318;48.644;9.456;2023-06-04T06:16:54;0.70;;;0.70;;
18383;SDS011;9318;48.644;9.456;2023-06-04T06:19:22;0.70;;;0.70;;
18383;SDS011;9318;48.644;9.456;2023-06-04T06:21:49;0.70;;;0.70;;
18383;SDS011;9318;48.644;9.456;2023-06-04T06:24:16;0.50;;;0.50;;
18383;SDS011;9318;48.644;9.456;2023-06-04T06:26:43;0.60;;;0.60;;
18383;SDS011;9318;48.644;9.456;2023-06-04T06:29:10;0.60;;;0.60;;
18383;SDS011;9318;48.644;9.456;2023-06-04T06:31:37;0.60;;;0.60;;
18383;SDS011;9318;48.644;9.456;2023-06-04T06:34:04;0.60;;;0.60;;
18383;SDS011;9318;48.644;9.456;2023-06-04T06:36:32;0.50;;;0.50;;
18383;SDS011;9318;48.644;9.456;2023-06-04T06:38:59;0.50;;;0.50;;
18383;SDS011;9318;48.644;9.456;2023-06-04T06:41:26;0.50;;;0.50;;
18383;SDS011;9318;48.644;9.456;2023-06-04T06:43:52;0.60;;;0.60;;
18383;SDS011;9318;48.644;9.456;2023-06-04T06:46:19;0.50;;;0.50;;
18383;SDS011;9318;48.644;9.456;2023-06-04T06:48:47;0.50;;;0.50;;
18383;SDS011;9318;48.644;9.456;2023-06-04T06:51:14;0.60;;;0.60;;
18383;SDS011;9318;48.644;9.456;2023-06-04T06:53:43;0.50;;;0.50;;
18383;SDS011;9318;48.644;9.456;2023-06-04T06:56:10;0.50;;;0.50;;
18383;SDS011;9318;48.644;9.456;2023-06-04T06:58:36;0.40;;;0.40;;
18383;SDS011;9318;48.644;9.456;2023-06-04T07:01:03;0.50;;;0.50;;
18383;SDS011;9318;48.644;9.456;2023-06-04T07:03:30;0.50;;;0.50;;
18383;SDS011;9318;48.644;9.456;2023-06-04T07:05:57;0.40;;;0.40;;
18383;SDS011;9318;48.644;9.456;2023-06-04T07:08:24;0.50;;;0.50;;
18383;SDS011;9318;48.644;9.456;2023-06-04T07:10:52;0.50;;;0.50;;
18383;SDS011;9318;48.644;9.456;2023-06-04T07:13:19;0.47;;;0.47;;
18383;SDS011;9318;48.644;9.456;2023-06-04T07:15:46;0.47;;;0.47;;
18383;SDS011;9318;48.644;9.456;2023-06-04T07:18:13;0.40;;;0.40;;
18383;SDS011;9318;48.644;9.456;2023-06-04T07:20:40;0.40;;;0.40;;
18383;SDS011;9318;48.644;9.456;2023-06-04T07:23:06;0.35;;;0.35;;
18383;SDS011;9318;48.644;9.456;2023-06-04T07:25:33;0.40;;;0.40;;
18383;SDS011;9318;48.644;9.456;2023-06-04T07:28:02;0.30;;;0.30;;
18383;SDS011;9318;48.644;9.456;2023-06-04T07:30:30;0.40;;;0.40;;
18383;SDS011;9318;48.644;9.456;2023-06-04T07:32:57;0.40;;;0.40;;
18383;SDS011;9318;48.644;9.456;2023-06-04T07:35:24;0.40;;;0.40;;
18383;SDS011;9318;48.644;9.456;2023-06-04T07:37:51;0.45;;;0.45;;
18383;SDS011;9318;48.644;9.456;2023-06-04T07:40:18;0.50;;;0.50;;
18383;SDS011;9318;48.644;9.456;2023-06-04T07:42:45;0.30;;;0.30;;
18383;SDS011;9318;48.644;9.456;2023-06-04T07:45:14;0.40;;;0.40;;
18383;SDS011;9318;48.644;9.456;2023-06-04T07:47:41;0.40;;;0.40;;
18383;SDS011;9318;48.644;9.456;2023-06-04T07:50:08;0.40;;;0.40;;
18383;SDS011;9318;48.644;9.456;2023-06-04T07:52:35;0.30;;;0.30;;
18383;SDS011;9318;48.644;9.456;2023-06-04T07:55:02;0.30;;;0.30;;
18383;SDS011;9318;48.644;9.456;2023-06-04T07:57:30;0.30;;;0.30;;
18383;SDS011;9318;48.644;9.456;2023-06-04T07:59:56;0.30;;;0.30;;
18383;SDS011;9318;48.644;9.456;2023-06-04T08:02:25;0.20;;;0.20;;
18383;SDS011;9318;48.644;9.456;2023-06-04T08:04:52;0.30;;;0.30;;
18383;SDS011;9318;48.644;9.456;2023-06-04T08:07:19;0.30;;;0.30;;
18383;SDS011;9318;48.644;9.456;2023-06-04T08:09:45;0.38;;;0.38;;
18383;SDS011;9318;48.644;9.456;2023-06-04T08:12:12;0.30;;;0.30;;
18383;SDS011;9318;48.644;9.456;2023-06-04T08:14:41;0.30;;;0.30;;
18383;SDS011;9318;48.644;9.456;2023-06-04T08:17:07;0.30;;;0.30;;
18383;SDS011;9318;48.644;9.456;2023-06-04T08:19:36;0.30;;;0.30;;
18383;SDS011;9318;48.644;9.456;2023-06-04T08:22:03;0.40;;;0.40;;
18383;SDS011;9318;48.644;9.456;2023-06-04T08:24:31;0.40;;;0.40;;
18383;SDS011;9318;48.644;9.456;2023-06-04T08:26:57;0.35;;;0.35;;
18383;SDS011;9318;48.644;9.456;2023-06-04T08:29:25;0.30;;;0.30;;
18383;SDS011;9318;48.644;9.456;2023-06-04T08:31:52;0.30;;;0.30;;
18383;SDS011;9318;48.644;9.456;2023-06-04T08:34:18;0.30;;;0.30;;
18383;SDS011;9318;48.644;9.456;2023-06-04T08:36:47;0.30;;;0.30;;
18383;SDS011;9318;48.644;9.456;2023-06-04T08:39:14;0.30;;;0.30;;
18383;SDS011;9318;48.644;9.456;2023-06-04T08:41:42;0.32;;;0.32;;
18383;SDS011;9318;48.644;9.456;2023-06-04T08:44:10;0.30;;;0.30;;
18383;SDS011;9318;48.644;9.456;2023-06-04T08:46:37;0.30;;;0.30;;
18383;SDS011;9318;48.644;9.456;2023-06-04T08:49:05;0.30;;;0.30;;
18383;SDS011;9318;48.644;9.456;2023-06-04T08:51:33;0.32;;;0.32;;
18383;SDS011;9318;48.644;9.456;2023-06-04T08:54:04;0.30;;;0.30;;
18383;SDS011;9318;48.644;9.456;2023-06-04T08:56:32;0.40;;;0.40;;
18383;SDS011;9318;48.644;9.456;2023-06-04T08:59:00;0.40;;;0.40;;
18383;SDS011;9318;48.644;9.456;2023-06-04T09:01:28;0.35;;;0.35;;
18383;SDS011;9318;48.644;9.456;2023-06-04T09:03:55;0.38;;;0.38;;
18383;SDS011;9318;48.644;9.456;2023-06-04T09:06:23;0.30;;;0.30;;
18383;SDS011;9318;48.644;9.456;2023-06-04T09:08:51;0.40;;;0.40;;
18383;SDS011;9318;48.644;9.456;2023-06-04T09:11:23;0.30;;;0.30;;
18383;SDS011;9318;48.644;9.456;2023-06-04T09:13:53;0.35;;;0.35;;
18383;SDS011;9318;48.644;9.456;2023-06-04T09:16:24;0.43;;;0.43;;
18383;SDS011;9318;48.644;9.456;2023-06-04T09:18:51;0.30;;;0.30;;
18383;SDS011;9318;48.644;9.456;2023-06-04T09:21:18;0.40;;;0.40;;
18383;SDS011;9318;48.644;9.456;2023-06-04T09:23:46;0.40;;;0.40;;
18383;SDS011;9318;48.644;9.456;2023-06-04T09:26:13;0.50;;;0.50;;
18383;SDS011;9318;48.644;9.456;2023-06-04T09:28:42;0.40;;;0.40;;
18383;SDS011;9318;48.644;9.456;2023-06-04T09:31:13;0.40;;;0.40;;
18383;SDS011;9318;48.644;9.456;2023-06-04T09:33:44;0.40;;;0.40;;
18383;SDS011;9318;48.644;9.456;2023-06-04T09:36:12;0.30;;;0.30;;
18383;SDS011;9318;48.644;9.456;2023-06-04T09:38:39;0.40;;;0.40;;
18383;SDS011;9318;48.644;9.456;2023-06-04T09:41:10;0.40;;;0.40;;
18383;SDS011;9318;48.644;9.456;2023-06-04T09:43:37;0.35;;;0.35;;
18383;SDS011;9318;48.644;9.456;2023-06-04T09:46:10;0.40;;;0.40;;
18383;SDS011;9318;48.644;9.456;2023-06-04T09:48:37;0.50;;;0.50;;
18383;SDS011;9318;48.644;9.456;2023-06-04T09:51:07;0.50;;;0.50;;
18383;SDS011;9318;48.644;9.456;2023-06-04T09:53:34;0.50;;;0.50;;
18383;SDS011;9318;48.644;9.456;2023-06-04T09:56:01;0.40;;;0.40;;
18383;SDS011;9318;48.644;9.456;2023-06-04T09:58:30;0.50;;;0.50;;
18383;SDS011;9318;48.644;9.456;2023-06-04T10:00:57;0.50;;;0.50;;
18383;SDS011;9318;48.644;9.456;2023-06-04T10:03:27;0.50;;;0.50;;
18383;SDS011;9318;48.644;9.456;2023-06-04T10:05:57;0.30;;;0.30;;
18383;SDS011;9318;48.644;9.456;2023-06-04T10:08:25;0.50;;;0.50;;
18383;SDS011;9318;48.644;9.456;2023-06-04T10:10:53;0.40;;;0.40;;
18383;SDS011;9318;48.644;9.456;2023-06-04T10:13:22;0.50;;;0.50;;
18383;SDS011;9318;48.644;9.456;2023-06-04T10:15:52;0.40;;;0.40;;
18383;SDS011;9318;48.644;9.456;2023-06-04T10:18:20;0.40;;;0.40;;
18383;SDS011;9318;48.644;9.456;2023-06-04T10:20:48;0.40;;;0.40;;
18383;SDS011;9318;48.644;9.456;2023-06-04T10:23:16;0.50;;;0.50;;
18383;SDS011;9318;48.644;9.456;2023-06-04T10:25:46;0.40;;;0.40;;
18383;SDS011;9318;48.644;9.456;2023-06-04T10:28:15;0.40;;;0.40;;
18383;SDS011;9318;48.644;9.456;2023-06-04T10:30:44;0.40;;;0.40;;
18383;SDS011;9318;48.644;9.456;2023-06-04T10:33:11;0.40;;;0.40;;
18383;SDS011;9318;48.644;9.456;2023-06-04T10:35:38;0.50;;;0.50;;
18383;SDS011;9318;48.644;9.456;2023-06-04T10:38:07;0.40;;;0.40;;
18383;SDS011;9318;48.644;9.456;2023-06-04T10:40:34;0.40;;;0.40;;
18383;SDS011;9318;48.644;9.456;2023-06-04T10:43:05;0.50;;;0.50;;
18383;SDS011;9318;48.644;9.456;2023-06-04T10:45:32;0.50;;;0.50;;
18383;SDS011;9318;48.644;9.456;2023-06-04T10:48:00;0.40;;;0.40;;
18383;SDS011;9318;48.644;9.456;2023-06-04T10:50:27;0.50;;;0.50;;
18383;SDS011;9318;48.644;9.456;2023-06-04T10:52:54;0.40;;;0.40;;
18383;SDS011;9318;48.644;9.456;2023-06-04T10:55:23;0.40;;;0.40;;
18383;SDS011;9318;48.644;9.456;2023-06-04T10:57:52;0.38;;;0.38;;
18383;SDS011;9318;48.644;9.456;2023-06-04T11:00:19;0.47;;;0.47;;
18383;SDS011;9318;48.644;9.456;2023-06-04T11:02:51;0.40;;;0.40;;
18383;SDS011;9318;48.644;9.456;2023-06-04T11:05:20;0.40;;;0.40;;
18383;SDS011;9318;48.644;9.456;2023-06-04T11:07:48;0.40;;;0.40;;
18383;SDS011;9318;48.644;9.456;2023-06-04T11:10:16;0.43;;;0.43;;
18383;SDS011;9318;48.644;9.456;2023-06-04T11:12:45;0.40;;;0.40;;
18383;SDS011;9318;48.644;9.456;2023-06-04T11:15:15;0.40;;;0.40;;
18383;SDS011;9318;48.644;9.456;2023-06-04T11:17:49;0.40;;;0.40;;
18383;SDS011;9318;48.644;9.456;2023-06-04T11:20:17;0.40;;;0.40;;
18383;SDS011;9318;48.644;9.456;2023-06-04T11:22:50;0.30;;;0.30;;
18383;SDS011;9318;48.644;9.456;2023-06-04T11:25:17;0.40;;;0.40;;
18383;SDS011;9318;48.644;9.456;2023-06-04T11:27:46;0.40;;;0.40;;
18383;SDS011;9318;48.644;9.456;2023-06-04T11:30:14;0.32;;;0.32;;
18383;SDS011;9318;48.644;9.456;2023-06-04T11:32:41;0.47;;;0.47;;
18383;SDS011;9318;48.644;9.456;2023-06-04T11:35:08;0.40;;;0.40;;
18383;SDS011;9318;48.644;9.456;2023-06-04T11:37:36;0.40;;;0.40;;
18383;SDS011;9318;48.644;9.456;2023-06-04T11:40:14;0.30;;;0.30;;
18383;SDS011;9318;48.644;9.456;2023-06-04T11:42:42;0.40;;;0.40;;
18383;SDS011;9318;48.644;9.456;2023-06-04T11:45:11;0.30;;;0.30;;
18383;SDS011;9318;48.644;9.456;2023-06-04T11:47:39;0.40;;;0.40;;
18383;SDS011;9318;48.644;9.456;2023-06-04T11:50:06;0.40;;;0.40;;
18383;SDS011;9318;48.644;9.456;2023-06-04T11:52:34;0.40;;;0.40;;
18383;SDS011;9318;48.644;9.456;2023-06-04T11:55:00;0.35;;;0.35;;
18383;SDS011;9318;48.644;9.456;2023-06-04T11:57:27;0.30;;;0.30;;
18383;SDS011;9318;48.644;9.456;2023-06-04T11:59:55;0.40;;;0.40;;
18383;SDS011;9318;48.644;9.456;2023-06-04T12:02:23;0.32;;;0.32;;
18383;SDS011;9318;48.644;9.456;2023-06-04T12:04:50;0.30;;;0.30;;
18383;SDS011;9318;48.644;9.456;2023-06-04T12:07:19;0.50;;;0.50;;
18383;SDS011;9318;48.644;9.456;2023-06-04T12:09:49;0.40;;;0.40;;
18383;SDS011;9318;48.644;9.456;2023-06-04T12:12:20;0.40;;;0.40;;
18383;SDS011;9318;48.644;9.456;2023-06-04T12:14:55;0.40;;;0.40;;
18383;SDS011;9318;48.644;9.456;2023-06-04T12:17:24;0.40;;;0.40;;
18383;SDS011;9318;48.644;9.456;2023-06-04T12:19:51;0.30;;;0.30;;
18383;SDS011;9318;48.644;9.456;2023-06-04T12:22:18;0.50;;;0.50;;
18383;SDS011;9318;48.644;9.456;2023-06-04T12:24:46;0.50;;;0.50;;
18383;SDS011;9318;48.644;9.456;2023-06-04T12:27:14;0.40;;;0.40;;
18383;SDS011;9318;48.644;9.456;2023-06-04T12:29:41;0.40;;;0.40;;
18383;SDS011;9318;48.644;9.456;2023-06-04T12:32:08;0.30;;;0.30;;
18383;SDS011;9318;48.644;9.456;2023-06-04T12:34:37;0.40;;;0.40;;
18383;SDS011;9318;48.644;9.456;2023-06-04T12:37:05;0.40;;;0.40;;
18383;SDS011;9318;48.644;9.456;2023-06-04T12:39:32;0.47;;;0.47;;
18383;SDS011;9318;48.644;9.456;2023-06-04T12:41:59;0.40;;;0.40;;
18383;SDS011;9318;48.644;9.456;2023-06-04T12:44:26;0.38;;;0.38;;
18383;SDS011;9318;48.644;9.456;2023-06-04T12:46:53;0.30;;;0.30;;
18383;SDS011;9318;48.644;9.456;2023-06-04T12:49:20;0.40;;;0.40;;
18383;SDS011;9318;48.644;9.456;2023-06-04T12:51:48;0.40;;;0.40;;
18383;SDS011;9318;48.644;9.456;2023-06-04T12:54:15;0.30;;;0.30;;
18383;SDS011;9318;48.644;9.456;2023-06-04T12:56:42;0.38;;;0.38;;
18383;SDS011;9318;48.644;9.456;2023-06-04T12:59:10;0.40;;;0.40;;
18383;SDS011;9318;48.644;9.456;2023-06-04T13:01:36;0.40;;;0.40;;
18383;SDS011;9318;48.644;9.456;2023-06-04T13:04:03;0.40;;;0.40;;
18383;SDS011;9318;48.644;9.456;2023-06-04T13:06:30;0.40;;;0.40;;
18383;SDS011;9318;48.644;9.456;2023-06-04T13:08:58;0.30;;;0.30;;
18383;SDS011;9318;48.644;9.456;2023-06-04T13:11:25;0.35;;;0.35;;
18383;SDS011;9318;48.644;9.456;2023-06-04T13:13:52;0.30;;;0.30;;
18383;SDS011;9318;48.644;9.456;2023-06-04T13:16:18;0.38;;;0.38;;
18383;SDS011;9318;48.644;9.456;2023-06-04T13:18:45;0.40;;;0.40;;
18383;SDS011;9318;48.644;9.456;2023-06-04T13:21:12;0.40;;;0.40;;
18383;SDS011;9318;48.644;9.456;2023-06-04T13:23:39;0.40;;;0.40;;
18383;SDS011;9318;48.644;9.456;2023-06-04T13:26:08;0.40;;;0.40;;
18383;SDS011;9318;48.644;9.456;2023-06-04T13:28:34;0.30;;;0.30;;
18383;SDS011;9318;48.644;9.456;2023-06-04T13:31:01;0.50;;;0.50;;
18383;SDS011;9318;48.644;9.456;2023-06-04T13:33:28;0.40;;;0.40;;
18383;SDS011;9318;48.644;9.456;2023-06-04T13:35:55;0.47;;;0.47;;
18383;SDS011;9318;48.644;9.456;2023-06-04T13:38:21;0.38;;;0.38;;
18383;SDS011;9318;48.644;9.456;2023-06-04T13:40:48;0.40;;;0.40;;
18383;SDS011;9318;48.644;9.456;2023-06-04T13:43:16;0.40;;;0.40;;
18383;SDS011;9318;48.644;9.456;2023-06-04T13:45:43;0.40;;;0.40;;
18383;SDS011;9318;48.644;9.456;2023-06-04T13:48:11;0.40;;;0.40;;
18383;SDS011;9318;48.644;9.456;2023-06-04T13:50:37;0.40;;;0.40;;
18383;SDS011;9318;48.644;9.456;2023-06-04T13:53:04;0.50;;;0.50;;
18383;SDS011;9318;48.644;9.456;2023-06-04T13:55:31;0.45;;;0.45;;
18383;SDS011;9318;48.644;9.456;2023-06-04T13:57:58;0.40;;;0.40;;
18383;SDS011;9318;48.644;9.456;2023-06-04T14:00:26;0.40;;;0.40;;
18383;SDS011;9318;48.644;9.456;2023-06-04T14:02:55;0.40;;;0.40;;
18383;SDS011;9318;48.644;9.456;2023-06-04T14:05:22;0.40;;;0.40;;
18383;SDS011;9318;48.644;9.456;2023-06-04T14:07:52;0.50;;;0.50;;
18383;SDS011;9318;48.644;9.456;2023-06-04T14:10:19;0.40;;;0.40;;
18383;SDS011;9318;48.644;9.456;2023-06-04T14:12:52;0.40;;;0.40;;
18383;SDS011;9318;48.644;9.456;2023-06-04T14:15:19;0.50;;;0.50;;
18383;SDS011;9318;48.644;9.456;2023-06-04T14:17:47;0.40;;;0.40;;
18383;SDS011;9318;48.644;9.456;2023-06-04T14:20:14;0.40;;;0.40;;
18383;SDS011;9318;48.644;9.456;2023-06-04T14:22:41;0.40;;;0.40;;
18383;SDS011;9318;48.644;9.456;2023-06-04T14:25:07;0.40;;;0.40;;
18383;SDS011;9318;48.644;9.456;2023-06-04T14:27:35;0.40;;;0.40;;
18383;SDS011;9318;48.644;9.456;2023-06-04T14:30:02;0.40;;;0.40;;
18383;SDS011;9318;48.644;9.456;2023-06-04T14:32:29;0.45;;;0.45;;
18383;SDS011;9318;48.644;9.456;2023-06-04T14:35:00;0.50;;;0.50;;
18383;SDS011;9318;48.644;9.456;2023-06-04T14:37:26;0.50;;;0.50;;
18383;SDS011;9318;48.644;9.456;2023-06-04T14:39:53;0.40;;;0.40;;
18383;SDS011;9318;48.644;9.456;2023-06-04T14:42:20;0.50;;;0.50;;
18383;SDS011;9318;48.644;9.456;2023-06-04T14:44:47;0.40;;;0.40;;
18383;SDS011;9318;48.644;9.456;2023-06-04T14:47:14;0.40;;;0.40;;
18383;SDS011;9318;48.644;9.456;2023-06-04T14:49:40;0.40;;;0.40;;
18383;SDS011;9318;48.644;9.456;2023-06-04T14:52:09;0.40;;;0.40;;
18383;SDS011;9318;48.644;9.456;2023-06-04T14:54:35;0.40;;;0.40;;
18383;SDS011;9318;48.644;9.456;2023-06-04T14:57:02;0.40;;;0.40;;
18383;SDS011;9318;48.644;9.456;2023-06-04T14:59:29;0.40;;;0.40;;
18383;SDS011;9318;48.644;9.456;2023-06-04T15:01:56;0.50;;;0.50;;
18383;SDS011;9318;48.644;9.456;2023-06-04T15:04:23;0.50;;;0.50;;